»·PEaware :: N2054S KSNA-KSNA

N2054S :: KSNA-KSNA

FLIGHT INFORMATION

Flight Status: Arrived
Operator: Privately registered:
United States
More flights under this callsign
Pilot: Utku A. (15598)
Aircraft: CESSNA 172 SKYHAWK
(C172)
More flights by this aircraft type
Origin: KSNA John Wayne-Orange Co
United States
Destination: KSNA John Wayne-Orange Co
United States
More flights between these airports :: More routes between these airports
Route: SLI
File this flight plan on PilotEdge
Remarks:
Altitude:
(Current/Filed)
3,000ft
Speed:
(Current/Filed)
105kts
Departed: 20-Oct-18 09:36 AM
Arrived: 20-Oct-18 10:18 AM
Distance/Time
Traveled:
0nm/0:42
Distance/Time
To Go:
Arrived

Flight Plot

Page will automatically refresh every two minutes.


Map Options




Map Legend


Flown Route
Filed Route
Departure Airport
Arrival Airport
Navaid (VOR, NDB)
Fix

Horizontal Profiles

Position Reports

Time Latitude Longitude Heading Altitude Ground
Speed
20-Oct-18 09:20 33.675627 -117.871061 40 60ft 0kts
20-Oct-18 09:21 33.675627 -117.871061 40 60ft 0kts
20-Oct-18 09:22 33.675627 -117.871061 40 60ft 0kts
20-Oct-18 09:23 33.675627 -117.871061 40 60ft 0kts
20-Oct-18 09:24 33.675627 -117.871061 40 60ft 0kts
20-Oct-18 09:25 33.675627 -117.871061 40 60ft 0kts
20-Oct-18 09:26 33.675627 -117.871061 40 60ft 0kts
20-Oct-18 09:27 33.675627 -117.871061 40 60ft 0kts
20-Oct-18 09:28 33.675627 -117.871061 40 60ft 0kts
20-Oct-18 09:29 33.675627 -117.871061 40 60ft 0kts
20-Oct-18 09:30 33.675627 -117.871061 40 60ft 0kts
20-Oct-18 09:31 33.675627 -117.871061 39 60ft 0kts
20-Oct-18 09:32 33.675627 -117.871061 39 60ft 0kts
20-Oct-18 09:33 33.675627 -117.871061 39 60ft 0kts
20-Oct-18 09:34 33.675649 -117.870937 110 60ft 0kts
20-Oct-18 09:35 33.676714 -117.869670 26 60ft 15kts
20-Oct-18 09:36 33.680218 -117.867629 28 60ft 12kts
20-Oct-18 09:37 33.681283 -117.866677 98 60ft 0kts
20-Oct-18 09:38 33.677453 -117.867723 209 91ft 74kts
20-Oct-18 09:39 33.664393 -117.885943 241 1301ft 75kts
20-Oct-18 09:40 33.653183 -117.910802 242 1995ft 108kts
20-Oct-18 09:41 33.638752 -117.944315 242 2068ft 115kts
20-Oct-18 09:42 33.649343 -117.964668 12 2478ft 90kts
20-Oct-18 09:43 33.673919 -117.957898 11 2999ft 108kts
20-Oct-18 09:44 33.702773 -117.950923 11 3001ft 110kts
20-Oct-18 09:45 33.734092 -117.943322 11 3000ft 117kts
20-Oct-18 09:46 33.766140 -117.936354 352 2998ft 117kts
20-Oct-18 09:47 33.779953 -117.961022 280 3970ft 97kts
20-Oct-18 09:48 33.785908 -117.997432 280 4000ft 115kts
20-Oct-18 09:49 33.788266 -118.034899 239 4000ft 113kts
20-Oct-18 09:50 33.772453 -118.063654 236 3999ft 112kts
20-Oct-18 09:51 33.755021 -118.095009 236 3999ft 112kts
20-Oct-18 09:52 33.737873 -118.126503 248 3997ft 112kts
20-Oct-18 09:53 33.756586 -118.136661 62 3996ft 112kts
20-Oct-18 09:54 33.767604 -118.101648 67 3999ft 112kts
20-Oct-18 09:55 33.779352 -118.066755 67 3999ft 112kts
20-Oct-18 09:56 33.794161 -118.033585 60 3999ft 112kts
20-Oct-18 09:57 33.807088 -117.999364 65 3999ft 112kts
20-Oct-18 09:58 33.820254 -117.965158 64 3999ft 112kts
20-Oct-18 09:59 33.833646 -117.931116 64 3999ft 112kts
20-Oct-18 10:00 33.847165 -117.897130 64 3999ft 112kts
20-Oct-18 10:01 33.860736 -117.863178 63 3999ft 112kts
20-Oct-18 10:02 33.874353 -117.829177 63 3999ft 112kts
20-Oct-18 10:03 33.885657 -117.800965 63 3999ft 112kts
20-Oct-18 10:04 33.901528 -117.761310 64 3999ft 112kts
20-Oct-18 10:05 33.912763 -117.733056 59 3999ft 112kts
20-Oct-18 10:06 33.937207 -117.702608 28 3953ft 102kts
20-Oct-18 10:07 33.961003 -117.693558 304 3543ft 94kts
20-Oct-18 10:08 33.947269 -117.701301 191 3598ft 87kts
20-Oct-18 10:09 33.918907 -117.714423 205 3518ft 92kts
20-Oct-18 10:10 33.899607 -117.726564 207 3399ft 94kts
20-Oct-18 10:11 33.872614 -117.743952 205 3423ft 91kts
20-Oct-18 10:12 33.853547 -117.756042 207 3426ft 96kts
20-Oct-18 10:13 33.829642 -117.771457 208 3197ft 98kts
20-Oct-18 10:14 33.805773 -117.786467 207 2709ft 96kts
20-Oct-18 10:15 33.782918 -117.800864 208 2175ft 88kts
20-Oct-18 10:16 33.760765 -117.814998 209 1871ft 96kts
20-Oct-18 10:17 33.736820 -117.830126 209 1304ft 96kts
20-Oct-18 10:18 33.714616 -117.844259 207 825ft 87kts
20-Oct-18 10:19 33.693486 -117.857521 206 367ft 84kts
20-Oct-18 10:20 33.676776 -117.868158 209 60ft 35kts
20-Oct-18 10:21 33.675950 -117.871184 321 60ft 2kts

Navigation Log

Ident Type
1. KSNA Airport
2. SLI Navaid
3. KSNA Airport